Terminal Aerodrome Forecast
Issued by NWS Wilmington, OH

Current Version | Previous Version | Graphics & Text | Print | Product List | Glossary On
Versions: 1 2 3 4 5 6 7 8 9 10 11 12 13 14 15 16 17 18 19 20 21 22 23 24 25 26 27 28 29 30 31 32
272
FTUS41 KILN 140815 AAB
TAFILN
TAF AMD
KILN 140815Z 1408/1506 06008KT 1 1/2SM -FZRA SCT006 OVC016
     FM141000 07007KT P6SM VCSH SCT006 OVC015
     FM141500 07004KT 5SM -FZRA BR OVC008
     FM141600 23004KT 5SM BR VCSH OVC010
     FM142200 32004KT P6SM OVC012
     FM150000 35005KT P6SM OVC012=

USA.gov is the U.S. government's official web portal to all federal, state and local government web resources and services.